createdAt,value
2023-01-08T00:00:24.167Z,32.15
2023-01-08T00:02:51.970Z,32.25
2023-01-08T00:05:19.463Z,34.20
2023-01-08T00:07:46.845Z,34.85
2023-01-08T00:10:14.851Z,35.13
2023-01-08T00:12:42.191Z,33.85
2023-01-08T00:15:09.788Z,34.00
2023-01-08T00:17:37.477Z,34.70
2023-01-08T00:20:05.312Z,33.08
2023-01-08T00:22:32.647Z,35.17
2023-01-08T00:25:00.303Z,34.22
2023-01-08T00:27:27.694Z,33.75
2023-01-08T00:29:55.082Z,34.03
2023-01-08T00:32:22.781Z,31.85
2023-01-08T00:34:50.153Z,34.35
2023-01-08T00:37:20.141Z,33.00
2023-01-08T00:39:47.768Z,32.55
2023-01-08T00:42:15.108Z,32.20
2023-01-08T00:44:42.480Z,32.40
2023-01-08T00:47:10.178Z,31.55
2023-01-08T00:49:37.790Z,31.98
2023-01-08T00:52:07.648Z,30.95
2023-01-08T00:54:35.389Z,31.58
2023-01-08T00:57:02.767Z,29.35
2023-01-08T00:59:30.116Z,31.77
2023-01-08T01:01:57.853Z,30.77
2023-01-08T01:04:26.337Z,31.70
2023-01-08T01:06:53.748Z,30.15
2023-01-08T01:09:21.404Z,32.83
2023-01-08T01:11:48.818Z,29.63
2023-01-08T01:14:16.516Z,31.73
2023-01-08T01:16:44.318Z,31.23
2023-01-08T01:19:12.076Z,31.25
2023-01-08T01:21:39.449Z,28.42
2023-01-08T01:24:07.479Z,30.98
2023-01-08T01:26:35.066Z,30.45
2023-01-08T01:29:02.744Z,29.10
2023-01-08T01:31:31.922Z,30.98
2023-01-08T01:33:59.544Z,32.15
2023-01-08T01:36:27.524Z,30.50
2023-01-08T01:38:56.499Z,31.85
2023-01-08T01:41:28.398Z,32.67
2023-01-08T01:43:58.723Z,32.17
2023-01-08T01:46:40.027Z,30.33
2023-01-08T01:49:14.173Z,30.97
2023-01-08T01:51:44.171Z,31.23
2023-01-08T01:54:13.272Z,30.73
2023-01-08T01:56:41.364Z,31.30
2023-01-08T01:59:09.251Z,31.02
2023-01-08T02:01:38.119Z,30.58
2023-01-08T02:04:06.510Z,30.27
2023-01-08T02:07:00.379Z,29.58
2023-01-08T02:09:45.356Z,30.92
2023-01-08T02:12:20.580Z,30.08
2023-01-08T02:14:57.106Z,28.90
2023-01-08T02:17:40.010Z,30.70
2023-01-08T02:22:45.617Z,30.05
2023-01-08T02:25:33.289Z,31.17
2023-01-08T02:28:01.932Z,31.27
2023-01-08T02:30:30.053Z,31.77
2023-01-08T02:32:57.444Z,30.15
2023-01-08T02:35:34.875Z,31.35
2023-01-08T02:38:02.333Z,29.95
2023-01-08T02:40:37.615Z,29.63
2023-01-08T02:43:17.531Z,28.58
2023-01-08T02:45:55.468Z,28.98
2023-01-08T02:48:46.213Z,31.17
2023-01-08T02:51:35.318Z,29.75
2023-01-08T02:54:05.495Z,30.48
2023-01-08T02:56:37.075Z,27.90
2023-01-08T02:59:05.598Z,27.83
2023-01-08T03:01:34.842Z,29.02
2023-01-08T03:04:06.789Z,28.23
2023-01-08T03:06:34.734Z,28.05
2023-01-08T03:09:02.230Z,29.02
2023-01-08T03:11:33.947Z,29.48
2023-01-08T03:14:11.107Z,27.25
2023-01-08T03:16:49.590Z,27.73
2023-01-08T03:19:21.113Z,28.98
2023-01-08T03:21:49.345Z,28.05
2023-01-08T03:24:21.858Z,27.33
2023-01-08T03:26:52.105Z,27.10
2023-01-08T03:29:21.083Z,29.05
2023-01-08T03:31:49.809Z,27.70
2023-01-08T03:34:18.543Z,27.52
2023-01-08T03:36:48.616Z,27.05
2023-01-08T03:39:33.210Z,27.67
2023-01-08T03:42:06.016Z,27.23
2023-01-08T03:44:33.712Z,27.90
2023-01-08T03:47:02.923Z,29.05
2023-01-08T03:49:30.758Z,28.05
2023-01-08T03:51:58.183Z,27.37
2023-01-08T03:54:33.270Z,28.30
2023-01-08T03:57:00.655Z,27.20
2023-01-08T03:59:28.356Z,28.00
2023-01-08T04:01:55.908Z,28.20
2023-01-08T04:04:23.739Z,28.10
2023-01-08T04:06:53.148Z,27.90
2023-01-08T04:09:20.695Z,27.42
2023-01-08T04:11:48.374Z,27.75
2023-01-08T04:14:15.834Z,28.23
2023-01-08T04:16:43.177Z,29.60
2023-01-08T04:19:14.432Z,29.20
2023-01-08T04:21:42.029Z,28.55
2023-01-08T04:24:13.200Z,27.35
2023-01-08T04:26:40.900Z,28.60
2023-01-08T04:29:08.261Z,28.15
2023-01-08T04:31:35.603Z,28.35
2023-01-08T04:34:03.338Z,30.60
2023-01-08T04:36:30.757Z,29.73
2023-01-08T04:38:58.122Z,28.30
2023-01-08T04:41:25.748Z,27.83
2023-01-08T04:43:53.101Z,27.58
2023-01-08T04:46:20.487Z,28.58
2023-01-08T04:48:48.147Z,28.73
2023-01-08T04:51:15.511Z,27.27
2023-01-08T04:53:42.905Z,28.60
2023-01-08T04:56:11.324Z,27.87
2023-01-08T04:58:39.243Z,28.83
2023-01-08T05:01:19.308Z,27.65
2023-01-08T05:03:47.023Z,27.75
2023-01-08T05:06:14.495Z,27.73
2023-01-08T05:08:42.131Z,26.75
2023-01-08T05:11:10.137Z,27.45
2023-01-08T05:13:37.543Z,27.62
2023-01-08T05:16:05.242Z,27.10
2023-01-08T05:18:33.006Z,26.98
2023-01-08T05:21:05.107Z,28.62
2023-01-08T05:26:01.634Z,26.83
2023-01-08T05:28:29.866Z,28.17
2023-01-08T05:30:57.837Z,28.08
2023-01-08T05:33:26.129Z,27.35
2023-01-08T05:35:53.630Z,28.23
2023-01-08T05:38:21.330Z,27.67
2023-01-08T05:40:52.157Z,26.70
2023-01-08T05:43:19.726Z,27.27
2023-01-08T05:45:47.494Z,28.80
2023-01-08T05:48:14.945Z,28.23
2023-01-08T05:50:42.339Z,27.42
2023-01-08T05:53:10.234Z,27.30
2023-01-08T05:55:37.569Z,27.45
2023-01-08T05:58:05.570Z,26.17
2023-01-08T06:00:34.405Z,25.88
2023-01-08T06:03:02.198Z,27.23
2023-01-08T06:05:31.249Z,25.55
2023-01-08T06:07:59.680Z,28.23
2023-01-08T06:10:27.639Z,27.92
2023-01-08T06:12:55.598Z,26.77
2023-01-08T06:15:23.032Z,26.83
2023-01-08T06:17:50.759Z,29.02
2023-01-08T06:20:18.179Z,26.70
2023-01-08T06:22:45.537Z,28.23
2023-01-08T06:25:13.206Z,27.90
2023-01-08T06:27:40.812Z,27.80
2023-01-08T06:30:09.024Z,27.33
2023-01-08T06:32:36.753Z,27.10
2023-01-08T06:35:04.469Z,25.67
2023-01-08T06:37:32.162Z,25.20
2023-01-08T06:39:59.801Z,25.83
2023-01-08T06:42:27.427Z,26.60
2023-01-08T06:44:54.805Z,26.67
2023-01-08T06:47:22.445Z,26.10
2023-01-08T06:49:50.071Z,25.95
2023-01-08T06:52:17.477Z,25.85
2023-01-08T06:54:45.096Z,27.48
2023-01-08T06:57:12.438Z,26.10
2023-01-08T06:59:39.808Z,26.25
2023-01-08T07:02:13.222Z,27.05
2023-01-08T07:04:40.661Z,26.35
2023-01-08T07:07:14.028Z,27.50
2023-01-08T07:09:42.351Z,27.95
2023-01-08T07:12:13.809Z,27.23
2023-01-08T07:14:41.480Z,26.05
2023-01-08T07:17:08.989Z,26.35
2023-01-08T07:19:36.714Z,27.85
2023-01-08T07:22:04.119Z,28.90
2023-01-08T07:24:31.535Z,27.25
2023-01-08T07:26:59.225Z,27.70
2023-01-08T07:29:27.265Z,28.23
2023-01-08T07:31:54.676Z,29.12
2023-01-08T07:34:22.283Z,28.73
2023-01-08T07:36:49.831Z,27.13
2023-01-08T07:39:17.192Z,28.95
2023-01-08T07:41:44.872Z,28.10
2023-01-08T07:44:12.466Z,28.02
2023-01-08T07:46:40.108Z,28.17
2023-01-08T07:49:07.858Z,29.02
2023-01-08T07:51:35.519Z,27.87
2023-01-08T07:54:03.173Z,26.42
2023-01-08T07:56:30.891Z,27.92
2023-01-08T07:58:58.281Z,28.02
2023-01-08T08:01:26.662Z,26.83
2023-01-08T08:03:54.400Z,26.60
2023-01-08T08:06:21.741Z,28.48
2023-01-08T08:08:49.330Z,26.27
2023-01-08T08:11:16.954Z,27.20
2023-01-08T08:13:45.152Z,27.00
2023-01-08T08:16:13.304Z,26.83
2023-01-08T08:18:41.070Z,26.17
2023-01-08T08:21:08.487Z,27.05
2023-01-08T08:23:36.899Z,26.08
2023-01-08T08:26:04.997Z,27.17
2023-01-08T08:28:32.329Z,25.67
2023-01-08T08:30:59.756Z,26.62
2023-01-08T08:33:27.491Z,25.95
2023-01-08T08:35:54.920Z,25.42
2023-01-08T08:38:24.036Z,25.75
2023-01-08T08:40:52.255Z,25.12
2023-01-08T08:43:19.762Z,23.77
2023-01-08T08:45:47.120Z,23.35
2023-01-08T08:48:16.728Z,23.10
2023-01-08T08:50:44.209Z,23.73
2023-01-08T08:53:11.664Z,23.60
2023-01-08T08:55:39.336Z,23.70
2023-01-08T08:58:12.543Z,23.20
2023-01-08T09:00:42.956Z,22.60
2023-01-08T09:03:13.775Z,22.67
2023-01-08T09:05:43.087Z,22.87
2023-01-08T09:08:11.219Z,22.42
2023-01-08T09:10:39.985Z,20.92
2023-01-08T09:13:08.063Z,21.52
2023-01-08T09:15:37.064Z,20.95
2023-01-08T09:18:05.114Z,21.52
2023-01-08T09:20:32.783Z,22.02
2023-01-08T09:23:01.450Z,19.65
2023-01-08T09:25:29.386Z,22.13
2023-01-08T09:28:01.569Z,21.80
2023-01-08T09:30:29.420Z,22.20
2023-01-08T09:33:02.854Z,20.52
2023-01-08T09:35:31.376Z,21.35
2023-01-08T09:37:59.355Z,20.27
2023-01-08T09:40:41.033Z,20.88
2023-01-08T09:43:15.064Z,19.02
2023-01-08T09:45:43.406Z,20.52
2023-01-08T09:48:16.495Z,21.37
2023-01-08T09:50:44.181Z,20.40
2023-01-08T09:53:16.394Z,19.92
2023-01-08T09:55:45.620Z,20.80
2023-01-08T09:58:24.920Z,20.12
2023-01-08T10:00:52.736Z,19.83
2023-01-08T10:03:30.580Z,19.12
2023-01-08T10:05:57.939Z,19.58
2023-01-08T10:08:25.669Z,21.17
2023-01-08T10:10:53.136Z,21.23
2023-01-08T10:13:20.519Z,20.75
2023-01-08T10:15:48.398Z,19.17
2023-01-08T10:18:19.111Z,20.42
2023-01-08T10:20:46.537Z,18.77
2023-01-08T10:23:19.324Z,18.12
2023-01-08T10:28:26.918Z,17.45
2023-01-08T10:31:14.887Z,16.92
2023-01-08T10:33:47.601Z,17.25
2023-01-08T10:36:17.650Z,16.58
2023-01-08T10:38:56.510Z,17.23
2023-01-08T10:41:24.110Z,17.20
2023-01-08T10:43:55.279Z,17.02
2023-01-08T10:46:25.064Z,17.35
2023-01-08T10:48:55.387Z,17.90
2023-01-08T10:51:28.004Z,16.80
2023-01-08T10:53:59.185Z,16.80
2023-01-08T10:56:28.594Z,17.65
2023-01-08T10:58:56.719Z,21.45
2023-01-08T11:01:29.057Z,23.35
2023-01-08T11:04:05.377Z,20.42
2023-01-08T11:06:34.585Z,19.67
2023-01-08T11:09:05.222Z,22.10
2023-01-08T11:11:37.187Z,18.87
2023-01-08T11:14:26.799Z,20.20
2023-01-08T11:16:54.726Z,19.02
2023-01-08T11:19:31.136Z,19.02
2023-01-08T11:22:04.678Z,19.00
2023-01-08T11:24:34.637Z,18.60
2023-01-08T11:27:05.031Z,17.95
2023-01-08T11:29:45.664Z,18.95
2023-01-08T11:32:15.835Z,19.37
2023-01-08T11:35:08.468Z,18.98
2023-01-08T11:37:37.900Z,19.90
2023-01-08T11:40:14.755Z,19.17
2023-01-08T11:43:11.331Z,19.62
2023-01-08T11:45:44.141Z,18.62
2023-01-08T11:48:23.852Z,18.15
2023-01-08T11:51:18.555Z,17.80
2023-01-08T11:53:51.589Z,18.33
2023-01-08T11:56:40.051Z,19.95
2023-01-08T11:59:26.626Z,19.00
2023-01-08T12:02:20.617Z,18.58
2023-01-08T12:04:57.288Z,19.87
2023-01-08T12:07:53.554Z,19.80
2023-01-08T12:10:27.907Z,19.17
2023-01-08T12:13:24.276Z,19.45
2023-01-08T12:16:08.526Z,19.25
2023-01-08T12:18:41.776Z,18.10
2023-01-08T12:21:26.860Z,17.58
2023-01-08T12:24:16.458Z,18.37
2023-01-08T12:26:59.401Z,19.40
2023-01-08T12:29:51.383Z,18.87
2023-01-08T12:32:33.718Z,17.77
2023-01-08T12:35:21.524Z,18.23
2023-01-08T12:37:54.169Z,19.08
2023-01-08T12:40:36.321Z,18.70
2023-01-08T12:43:07.859Z,18.52
2023-01-08T12:45:41.842Z,19.33
2023-01-08T12:48:18.977Z,21.40
2023-01-08T12:51:07.487Z,20.23
2023-01-08T12:53:41.991Z,19.80
2023-01-08T12:56:21.381Z,17.95
2023-01-08T12:58:55.037Z,17.42
2023-01-08T13:01:49.229Z,17.05
2023-01-08T13:04:17.211Z,17.42
2023-01-08T13:07:13.369Z,18.10
2023-01-08T13:09:41.052Z,18.02
2023-01-08T13:12:09.084Z,18.92
2023-01-08T13:14:43.555Z,20.23
2023-01-08T13:17:19.883Z,18.73
2023-01-08T13:19:53.191Z,19.70
2023-01-08T13:22:29.623Z,17.15
2023-01-08T13:25:09.294Z,18.00
2023-01-08T13:27:37.000Z,18.30
2023-01-08T13:30:30.891Z,17.87
2023-01-08T13:32:58.725Z,19.30
2023-01-08T13:35:29.511Z,19.25
2023-01-08T13:38:17.949Z,18.52
2023-01-08T13:40:46.441Z,18.20
2023-01-08T13:43:24.567Z,19.12
2023-01-08T13:45:58.291Z,18.12
2023-01-08T13:48:28.312Z,17.58
2023-01-08T13:50:56.327Z,16.75
2023-01-08T13:53:24.438Z,17.73
2023-01-08T13:56:00.144Z,18.30
2023-01-08T13:58:31.984Z,18.27
2023-01-08T14:01:00.324Z,16.20
2023-01-08T14:03:27.992Z,16.15
2023-01-08T14:06:17.998Z,15.82
2023-01-08T14:08:55.599Z,16.87
2023-01-08T14:11:25.477Z,16.67
2023-01-08T14:13:53.240Z,17.98
2023-01-08T14:16:21.703Z,19.05
2023-01-08T14:18:50.059Z,21.02
2023-01-08T14:21:22.079Z,18.42
2023-01-08T14:23:50.617Z,16.58
2023-01-08T14:26:32.379Z,18.05
2023-01-08T14:29:01.573Z,15.82
2023-01-08T14:31:29.571Z,16.75
2023-01-08T14:33:58.711Z,15.85
2023-01-08T14:36:26.703Z,18.00
2023-01-08T14:38:54.371Z,17.45
2023-01-08T14:41:52.624Z,17.10
2023-01-08T14:44:29.121Z,17.20
2023-01-08T14:47:03.865Z,16.33
2023-01-08T14:49:34.419Z,17.60
2023-01-08T14:52:02.725Z,16.98
2023-01-08T14:54:33.829Z,16.25
2023-01-08T14:57:02.189Z,16.83
2023-01-08T14:59:34.839Z,18.42
2023-01-08T15:02:04.490Z,18.45
2023-01-08T15:04:32.301Z,17.83
2023-01-08T15:07:22.714Z,20.33
2023-01-08T15:09:58.385Z,17.75
2023-01-08T15:12:28.141Z,18.98
2023-01-08T15:14:55.836Z,19.83
2023-01-08T15:17:25.679Z,18.17
2023-01-08T15:19:57.990Z,17.12
2023-01-08T15:22:32.835Z,14.85
2023-01-08T15:25:02.534Z,14.38
2023-01-08T15:27:37.324Z,14.00
2023-01-08T15:30:06.006Z,13.10
2023-01-08T15:32:36.990Z,13.10
2023-01-08T15:35:25.856Z,14.15
2023-01-08T15:37:53.537Z,14.07
2023-01-08T15:40:21.167Z,12.32
2023-01-08T15:43:07.284Z,12.85
2023-01-08T15:45:35.011Z,15.15
2023-01-08T15:48:03.357Z,26.35
2023-01-08T15:50:37.547Z,39.08
2023-01-08T15:53:07.973Z,28.10
2023-01-08T15:55:35.343Z,23.20
2023-01-08T15:58:02.683Z,23.45
2023-01-08T16:00:30.730Z,21.20
2023-01-08T16:02:59.930Z,25.80
2023-01-08T16:05:29.117Z,21.08
2023-01-08T16:07:56.630Z,19.98
2023-01-08T16:10:24.881Z,20.02
2023-01-08T16:12:52.438Z,20.08
2023-01-08T16:15:19.835Z,19.55
2023-01-08T16:17:47.612Z,20.00
2023-01-08T16:20:15.373Z,19.65
2023-01-08T16:22:42.875Z,18.85
2023-01-08T16:25:10.900Z,18.42
2023-01-08T16:27:39.431Z,15.00
2023-01-08T16:30:08.222Z,13.30
2023-01-08T16:32:35.892Z,11.95
2023-01-08T16:35:03.744Z,10.68
2023-01-08T16:37:31.700Z,11.35
2023-01-08T16:39:59.335Z,10.60
2023-01-08T16:42:26.859Z,11.07
2023-01-08T16:44:54.336Z,12.55
2023-01-08T16:47:22.075Z,16.40
2023-01-08T16:49:50.438Z,20.67
2023-01-08T16:52:18.009Z,19.00
2023-01-08T16:54:46.050Z,20.70
2023-01-08T16:57:13.568Z,18.92
2023-01-08T16:59:41.008Z,18.48
2023-01-08T17:02:10.253Z,20.20
2023-01-08T17:04:37.776Z,21.33
2023-01-08T17:07:05.242Z,21.08
2023-01-08T17:09:34.280Z,21.00
2023-01-08T17:12:01.719Z,20.23
2023-01-08T17:14:29.149Z,20.25
2023-01-08T17:16:56.808Z,20.90
2023-01-08T17:19:24.205Z,21.83
2023-01-08T17:21:51.809Z,20.62
2023-01-08T17:24:19.523Z,17.40
2023-01-08T17:26:46.929Z,18.73
2023-01-08T17:29:14.341Z,18.35
2023-01-08T17:31:42.134Z,18.90
2023-01-08T17:34:13.398Z,18.73
2023-01-08T17:36:41.092Z,18.55
2023-01-08T17:39:11.041Z,20.35
2023-01-08T17:41:57.657Z,20.48
2023-01-08T17:44:26.531Z,21.05
2023-01-08T17:46:54.289Z,20.98
2023-01-08T17:49:21.745Z,24.00
2023-01-08T17:51:49.460Z,25.33
2023-01-08T17:54:17.122Z,22.60
2023-01-08T17:56:44.758Z,23.45
2023-01-08T17:59:14.080Z,23.27
2023-01-08T18:01:41.935Z,25.85
2023-01-08T18:04:09.644Z,37.35
2023-01-08T18:06:37.063Z,38.00
2023-01-08T18:09:04.696Z,35.20
2023-01-08T18:11:33.226Z,29.98
2023-01-08T18:14:02.201Z,28.15
2023-01-08T18:16:30.519Z,20.48
2023-01-08T18:18:59.266Z,21.35
2023-01-08T18:21:27.788Z,22.15
2023-01-08T18:23:55.813Z,17.12
2023-01-08T18:26:23.702Z,17.30
2023-01-08T18:28:51.982Z,20.88
2023-01-08T18:31:19.745Z,22.20
2023-01-08T18:33:51.495Z,20.80
2023-01-08T18:36:19.918Z,20.77
2023-01-08T18:38:48.359Z,20.15
2023-01-08T18:41:36.775Z,18.48
2023-01-08T18:44:05.862Z,13.40
2023-01-08T18:46:33.917Z,11.93
2023-01-08T18:49:01.932Z,10.80
2023-01-08T18:51:29.599Z,11.77
2023-01-08T18:53:57.073Z,10.50
2023-01-08T18:56:29.090Z,11.15
2023-01-08T19:01:24.637Z,9.85
2023-01-08T19:03:52.319Z,9.57
2023-01-08T19:06:20.061Z,9.25
2023-01-08T19:08:47.658Z,11.12
2023-01-08T19:11:15.505Z,10.48
2023-01-08T19:13:43.241Z,10.63
2023-01-08T19:16:12.883Z,16.87
2023-01-08T19:18:40.413Z,13.70
2023-01-08T19:21:09.428Z,18.25
2023-01-08T19:23:36.849Z,13.27
2023-01-08T19:26:07.984Z,10.25
2023-01-08T19:28:36.154Z,11.30
2023-01-08T19:31:03.721Z,10.10
2023-01-08T19:33:31.172Z,11.07
2023-01-08T19:36:08.467Z,10.00
2023-01-08T19:38:35.886Z,9.65
2023-01-08T19:41:03.538Z,9.63
2023-01-08T19:43:42.680Z,9.50
2023-01-08T19:46:15.123Z,9.93
2023-01-08T19:48:44.004Z,10.85
2023-01-08T19:51:12.726Z,9.85
2023-01-08T19:53:40.246Z,9.73
2023-01-08T19:56:13.147Z,9.98
2023-01-08T19:58:41.216Z,10.02
2023-01-08T20:01:13.905Z,10.63
2023-01-08T20:03:42.280Z,10.70
2023-01-08T20:06:20.976Z,11.25
2023-01-08T20:08:50.587Z,11.25
2023-01-08T20:11:18.010Z,10.82
2023-01-08T20:13:45.450Z,11.75
2023-01-08T20:16:15.712Z,10.98
2023-01-08T20:18:43.306Z,10.10
2023-01-08T20:21:16.937Z,10.43
2023-01-08T20:23:45.059Z,10.02
2023-01-08T20:26:15.139Z,9.63
2023-01-08T20:28:43.342Z,9.00
2023-01-08T20:31:12.191Z,10.40
2023-01-08T20:33:39.899Z,9.90
2023-01-08T20:36:15.893Z,9.82
2023-01-08T20:38:44.394Z,9.40
2023-01-08T20:41:12.135Z,10.05
2023-01-08T20:43:40.343Z,9.30
2023-01-08T20:46:13.762Z,9.43
2023-01-08T20:48:47.687Z,9.60
2023-01-08T20:51:16.305Z,9.70
2023-01-08T20:53:43.725Z,9.65
2023-01-08T20:56:13.227Z,8.82
2023-01-08T20:58:43.442Z,8.90
2023-01-08T21:01:13.986Z,9.85
2023-01-08T21:03:42.108Z,8.80
2023-01-08T21:06:20.890Z,9.25
2023-01-08T21:08:50.694Z,8.98
2023-01-08T21:11:19.015Z,8.63
2023-01-08T21:13:46.928Z,9.38
2023-01-08T21:16:17.415Z,9.13
2023-01-08T21:18:47.508Z,9.63
2023-01-08T21:21:23.329Z,9.00
2023-01-08T21:23:50.988Z,8.63
2023-01-08T21:26:19.155Z,8.70
2023-01-08T21:28:47.222Z,8.32
2023-01-08T21:31:20.363Z,7.72
2023-01-08T21:33:49.085Z,8.32
2023-01-08T21:36:21.740Z,8.25
2023-01-08T21:38:49.844Z,8.57
2023-01-08T21:41:38.892Z,8.10
2023-01-08T21:44:30.975Z,8.65
2023-01-08T21:47:00.356Z,8.57
2023-01-08T21:49:28.265Z,8.52
2023-01-08T21:52:14.329Z,9.75
2023-01-08T21:54:42.112Z,9.48
2023-01-08T21:57:10.048Z,10.77
2023-01-08T21:59:37.658Z,10.88
2023-01-08T22:02:06.025Z,11.88
2023-01-08T22:04:33.729Z,11.95
2023-01-08T22:07:01.220Z,10.98
2023-01-08T22:09:28.597Z,12.05
2023-01-08T22:11:56.264Z,13.10
2023-01-08T22:14:23.616Z,12.30
2023-01-08T22:16:51.126Z,11.20
2023-01-08T22:19:18.884Z,12.27
2023-01-08T22:21:46.320Z,11.70
2023-01-08T22:24:13.709Z,12.93
2023-01-08T22:26:41.450Z,14.00
2023-01-08T22:29:08.827Z,17.05
2023-01-08T22:31:36.210Z,15.80
2023-01-08T22:34:03.966Z,14.38
2023-01-08T22:36:31.326Z,13.85
2023-01-08T22:38:58.724Z,13.50
2023-01-08T22:41:26.441Z,13.18
2023-01-08T22:43:55.877Z,13.00
2023-01-08T22:46:23.911Z,13.80
2023-01-08T22:48:51.941Z,14.38
2023-01-08T22:51:24.780Z,12.85
2023-01-08T22:53:54.092Z,14.82
2023-01-08T22:56:21.491Z,13.13
2023-01-08T22:58:48.834Z,13.70
2023-01-08T23:01:22.166Z,13.13
2023-01-08T23:03:50.915Z,14.20
2023-01-08T23:06:20.525Z,13.52
2023-01-08T23:08:48.127Z,13.20
2023-01-08T23:11:17.204Z,14.48
2023-01-08T23:13:45.059Z,15.32
2023-01-08T23:16:14.543Z,16.67
2023-01-08T23:18:42.199Z,16.67
2023-01-08T23:21:12.702Z,15.75
2023-01-08T23:23:40.280Z,17.65
2023-01-08T23:26:10.124Z,18.27
2023-01-08T23:28:38.628Z,19.05
2023-01-08T23:31:07.901Z,19.25
2023-01-08T23:33:35.338Z,19.25
2023-01-08T23:36:03.452Z,17.85
2023-01-08T23:38:31.265Z,17.42
2023-01-08T23:40:59.025Z,20.00
2023-01-08T23:43:26.734Z,21.15
2023-01-08T23:45:55.630Z,21.62
2023-01-08T23:48:23.131Z,19.23
2023-01-08T23:50:50.825Z,18.80
2023-01-08T23:53:18.480Z,19.05
2023-01-08T23:55:45.833Z,18.87
2023-01-08T23:58:13.760Z,20.05
